Time;durP1;ratioP1;P1;durP2;ratioP2;P2;SDS_P1;SDS_P2;PMS_P1;PMS_P2;Temp;Humidity;BMP_temperature;BMP_pressure;BME280_temperature;BME280_humidity;BME280_pressure;Samples;Min_cycle;Max_cycle;Signal;HPM_P1;HPM_P2
2023/01/21 00:00:40;;;;;;;0.00;0.00;;;;;;;;;;5050608;28;20372;-68
2023/01/21 00:03:06;;;;;;;0.10;0.10;;;;;;;;;;5049707;28;20364;-68
2023/01/21 00:05:31;;;;;;;0.10;0.10;;;;;;;;;;5049070;28;20099;-68
2023/01/21 00:07:56;;;;;;;0.10;0.10;;;;;;;;;;5030196;28;20039;-68
2023/01/21 00:10:22;;;;;;;0.10;0.10;;;;;;;;;;5030180;28;20025;-74
2023/01/21 00:12:47;;;;;;;0.00;0.00;;;;;;;;;;5030324;28;20420;-69
2023/01/21 00:15:13;;;;;;;0.10;0.10;;;;;;;;;;5030364;28;20038;-70
2023/01/21 00:17:38;;;;;;;0.00;0.00;;;;;;;;;;5030517;28;20018;-68
2023/01/21 00:20:04;;;;;;;0.10;0.10;;;;;;;;;;5029864;28;20032;-70
2023/01/21 00:22:29;;;;;;;0.10;0.10;;;;;;;;;;5029914;28;20021;-68
2023/01/21 00:24:55;;;;;;;0.10;0.10;;;;;;;;;;5030307;28;20038;-70
2023/01/21 00:27:20;;;;;;;1.08;0.85;;;;;;;;;;5029779;28;20025;-73
2023/01/21 00:29:46;;;;;;;0.10;0.10;;;;;;;;;;5030078;28;20029;-70
2023/01/21 00:32:12;;;;;;;0.00;0.00;;;;;;;;;;5030132;28;20052;-67
2023/01/21 00:34:37;;;;;;;0.30;0.30;;;;;;;;;;5030007;28;20417;-68
2023/01/21 00:37:02;;;;;;;0.70;0.47;;;;;;;;;;5029810;28;20528;-71
2023/01/21 00:39:28;;;;;;;0.00;0.00;;;;;;;;;;5030287;28;20040;-72
2023/01/21 00:41:53;;;;;;;0.10;0.10;;;;;;;;;;5029555;28;20056;-70
2023/01/21 00:44:19;;;;;;;0.20;0.20;;;;;;;;;;5028840;28;20022;-70
2023/01/21 00:46:44;;;;;;;0.43;0.43;;;;;;;;;;5030017;28;20465;-72
2023/01/21 00:49:09;;;;;;;0.40;0.32;;;;;;;;;;5029922;28;20439;-70
2023/01/21 00:51:35;;;;;;;2.90;0.65;;;;;;;;;;5049406;28;20017;-71
2023/01/21 00:54:00;;;;;;;0.10;0.10;;;;;;;;;;5049447;28;20025;-70
2023/01/21 00:56:26;;;;;;;0.10;0.10;;;;;;;;;;5049358;28;20364;-70
2023/01/21 00:58:51;;;;;;;0.10;0.10;;;;;;;;;;5049630;28;20055;-70
2023/01/21 01:01:19;;;;;;;0.10;0.10;;;;;;;;;;5049419;28;20528;-70
2023/01/21 01:03:45;;;;;;;0.10;0.10;;;;;;;;;;5049566;28;20029;-72
2023/01/21 01:06:12;;;;;;;0.40;0.30;;;;;;;;;;5049269;28;20049;-71
2023/01/21 01:08:37;;;;;;;0.10;0.10;;;;;;;;;;5049695;28;20056;-69
2023/01/21 01:11:03;;;;;;;0.00;0.00;;;;;;;;;;5048978;28;20462;-69
2023/01/21 01:13:29;;;;;;;0.13;0.13;;;;;;;;;;5049386;28;20124;-76
2023/01/21 01:15:56;;;;;;;0.30;0.30;;;;;;;;;;5049056;28;20102;-71
2023/01/21 01:18:22;;;;;;;0.10;0.10;;;;;;;;;;5049197;28;20029;-71
2023/01/21 01:20:48;;;;;;;0.17;0.10;;;;;;;;;;5049241;28;20029;-71
2023/01/21 01:23:13;;;;;;;0.00;0.00;;;;;;;;;;5049384;28;20346;-69
2023/01/21 01:25:39;;;;;;;0.00;0.00;;;;;;;;;;5030995;28;20056;-71
2023/01/21 01:28:04;;;;;;;0.13;0.13;;;;;;;;;;5049033;28;20033;-70
2023/01/21 01:30:30;;;;;;;0.80;0.65;;;;;;;;;;5049151;28;20017;-69
2023/01/21 01:32:55;;;;;;;0.35;0.30;;;;;;;;;;5042948;28;20089;-69
2023/01/21 01:35:24;;;;;;;0.10;0.10;;;;;;;;;;5000308;28;20041;-71
2023/01/21 01:37:57;;;;;;;0.10;0.10;;;;;;;;;;5011520;28;20022;-70
2023/01/21 01:40:22;;;;;;;0.15;0.15;;;;;;;;;;5029130;28;20033;-70
2023/01/21 01:42:48;;;;;;;0.10;0.10;;;;;;;;;;5028288;28;20520;-70
2023/01/21 01:45:21;;;;;;;0.05;0.05;;;;;;;;;;5029250;28;20168;-70
2023/01/21 01:47:49;;;;;;;0.10;0.10;;;;;;;;;;5029194;28;20014;-69
2023/01/21 01:50:18;;;;;;;0.10;0.10;;;;;;;;;;5027871;28;20033;-70
2023/01/21 01:52:44;;;;;;;0.10;0.10;;;;;;;;;;5028971;28;20022;-70
2023/01/21 01:55:10;;;;;;;0.00;0.00;;;;;;;;;;5028744;28;20445;-69
2023/01/21 01:57:38;;;;;;;0.00;0.00;;;;;;;;;;5011875;28;20053;-69
2023/01/21 02:00:05;;;;;;;0.10;0.10;;;;;;;;;;5028994;28;20027;-69
2023/01/21 02:02:37;;;;;;;0.10;0.10;;;;;;;;;;5029020;28;20480;-69
2023/01/21 02:05:04;;;;;;;0.08;0.08;;;;;;;;;;5011245;28;20121;-69
2023/01/21 02:07:37;;;;;;;0.20;0.20;;;;;;;;;;5028866;28;20041;-71
2023/01/21 02:10:04;;;;;;;0.10;0.10;;;;;;;;;;5010928;28;20464;-69
2023/01/21 02:12:29;;;;;;;0.10;0.10;;;;;;;;;;5029223;28;20033;-69
2023/01/21 02:14:55;;;;;;;0.10;0.10;;;;;;;;;;5028737;28;20025;-69
2023/01/21 02:17:26;;;;;;;0.30;0.15;;;;;;;;;;5028866;28;20458;-69
2023/01/21 02:20:01;;;;;;;0.17;0.10;;;;;;;;;;5028555;28;20022;-69
2023/01/21 02:22:40;;;;;;;0.10;0.10;;;;;;;;;;5027607;28;20412;-69
2023/01/21 02:25:24;;;;;;;0.20;0.20;;;;;;;;;;5029252;28;20036;-69
2023/01/21 02:28:09;;;;;;;0.10;0.10;;;;;;;;;;5031094;28;20361;-70
2023/01/21 02:30:37;;;;;;;0.10;0.10;;;;;;;;;;5031451;28;20025;-70
2023/01/21 02:33:21;;;;;;;0.10;0.10;;;;;;;;;;4998137;28;20130;-69
2023/01/21 02:36:05;;;;;;;1.02;0.35;;;;;;;;;;5032295;28;20071;-73
2023/01/21 02:38:31;;;;;;;0.05;0.05;;;;;;;;;;5032078;28;20021;-68
2023/01/21 02:40:56;;;;;;;0.17;0.17;;;;;;;;;;5030396;28;20216;-69
2023/01/21 02:43:35;;;;;;;23.55;0.90;;;;;;;;;;5031955;28;20013;-69
2023/01/21 02:46:08;;;;;;;0.10;0.10;;;;;;;;;;5014135;28;20029;-74
2023/01/21 02:48:44;;;;;;;0.17;0.17;;;;;;;;;;5032332;28;20049;-68
2023/01/21 02:51:11;;;;;;;1.13;0.20;;;;;;;;;;5032357;28;20033;-69
2023/01/21 02:53:36;;;;;;;0.10;0.10;;;;;;;;;;5031631;28;20033;-70
2023/01/21 02:56:05;;;;;;;0.03;0.03;;;;;;;;;;5031412;28;20049;-69
2023/01/21 02:58:32;;;;;;;0.20;0.20;;;;;;;;;;5031968;28;20029;-70
2023/01/21 03:01:01;;;;;;;0.10;0.10;;;;;;;;;;5031475;28;20096;-69
2023/01/21 03:03:45;;;;;;;0.10;0.10;;;;;;;;;;5032001;28;20029;-70
2023/01/21 03:06:13;;;;;;;0.28;0.10;;;;;;;;;;5031219;28;20125;-69
2023/01/21 03:08:49;;;;;;;0.20;0.20;;;;;;;;;;5014276;28;20030;-69
2023/01/21 03:11:16;;;;;;;0.32;0.20;;;;;;;;;;5031813;28;20032;-69
2023/01/21 03:19:20;;;;;;;0.10;0.10;;;;;;;;;;5031371;28;20084;-69
2023/01/21 03:21:46;;;;;;;0.13;0.10;;;;;;;;;;5031049;28;20017;-70
2023/01/21 03:24:13;;;;;;;0.32;0.32;;;;;;;;;;5031349;28;20033;-74
2023/01/21 03:26:41;;;;;;;0.15;0.10;;;;;;;;;;5030147;28;20029;-69
2023/01/21 03:29:08;;;;;;;0.40;0.40;;;;;;;;;;5030960;28;20022;-71
2023/01/21 03:31:35;;;;;;;0.10;0.10;;;;;;;;;;5029986;28;20034;-68
2023/01/21 03:34:04;;;;;;;0.10;0.10;;;;;;;;;;5030911;28;20029;-68
2023/01/21 03:36:32;;;;;;;0.13;0.13;;;;;;;;;;5030964;28;20064;-71
2023/01/21 03:38:58;;;;;;;0.38;0.30;;;;;;;;;;5029990;28;20029;-71
2023/01/21 03:41:26;;;;;;;0.10;0.10;;;;;;;;;;5031214;28;20338;-70
2023/01/21 03:43:52;;;;;;;0.10;0.10;;;;;;;;;;5030849;28;20032;-69
2023/01/21 03:46:23;;;;;;;0.10;0.10;;;;;;;;;;5030628;28;20469;-69
2023/01/21 03:48:49;;;;;;;0.80;0.38;;;;;;;;;;5030977;28;20026;-69
2023/01/21 03:51:17;;;;;;;0.10;0.10;;;;;;;;;;5030832;28;20025;-69
2023/01/21 03:53:43;;;;;;;0.10;0.10;;;;;;;;;;5030703;28;20029;-69
2023/01/21 03:56:09;;;;;;;0.10;0.10;;;;;;;;;;5030819;28;20414;-70
2023/01/21 03:58:34;;;;;;;0.60;0.30;;;;;;;;;;5029774;28;20080;-68
2023/01/21 04:01:00;;;;;;;0.10;0.10;;;;;;;;;;4996573;28;20032;-69
2023/01/21 04:03:25;;;;;;;0.10;0.10;;;;;;;;;;5030708;28;20026;-76
2023/01/21 04:05:51;;;;;;;0.10;0.10;;;;;;;;;;5030064;28;20461;-69
2023/01/21 04:08:16;;;;;;;0.10;0.10;;;;;;;;;;5030888;28;20174;-69
2023/01/21 04:10:42;;;;;;;0.10;0.10;;;;;;;;;;5030383;28;20025;-69
2023/01/21 04:13:07;;;;;;;0.00;0.00;;;;;;;;;;5029401;28;20365;-69
2023/01/21 04:15:33;;;;;;;0.10;0.10;;;;;;;;;;5012660;28;20044;-69
2023/01/21 04:17:58;;;;;;;0.28;0.17;;;;;;;;;;5028010;28;20022;-68
2023/01/21 04:20:24;;;;;;;0.10;0.10;;;;;;;;;;5001242;28;20379;-68
2023/01/21 04:22:49;;;;;;;4.40;0.70;;;;;;;;;;5029159;28;20109;-69
2023/01/21 04:25:15;;;;;;;0.08;0.05;;;;;;;;;;5012141;28;20053;-70
2023/01/21 04:27:40;;;;;;;0.10;0.10;;;;;;;;;;5029856;28;20101;-71
2023/01/21 04:30:06;;;;;;;0.10;0.10;;;;;;;;;;5028867;28;20028;-69
2023/01/21 04:32:32;;;;;;;0.20;0.20;;;;;;;;;;5029907;28;20090;-70
2023/01/21 04:34:57;;;;;;;0.10;0.10;;;;;;;;;;5029062;28;20056;-69
2023/01/21 04:37:23;;;;;;;1.50;1.40;;;;;;;;;;5029978;28;20034;-72
2023/01/21 04:39:48;;;;;;;0.17;0.10;;;;;;;;;;5028525;28;20021;-70
2023/01/21 04:42:13;;;;;;;0.20;0.20;;;;;;;;;;5029746;28;20067;-70
2023/01/21 04:44:39;;;;;;;2.17;0.32;;;;;;;;;;5029753;28;20358;-68
2023/01/21 04:47:04;;;;;;;0.00;0.00;;;;;;;;;;5029978;28;20014;-69
2023/01/21 04:49:30;;;;;;;0.20;0.20;;;;;;;;;;5028680;28;20491;-70
2023/01/21 04:51:55;;;;;;;0.10;0.10;;;;;;;;;;5029318;28;20405;-69
2023/01/21 04:54:21;;;;;;;0.10;0.10;;;;;;;;;;5030079;28;20029;-69
2023/01/21 04:56:46;;;;;;;0.10;0.10;;;;;;;;;;5017546;28;20037;-71
2023/01/21 04:59:12;;;;;;;0.10;0.10;;;;;;;;;;5029955;28;20067;-68
2023/01/21 05:01:37;;;;;;;2.45;0.63;;;;;;;;;;5028330;28;20022;-69
2023/01/21 05:04:05;;;;;;;4.13;0.70;;;;;;;;;;5029134;28;20098;-69
2023/01/21 05:06:30;;;;;;;0.00;0.00;;;;;;;;;;5029770;28;20225;-70
2023/01/21 05:08:56;;;;;;;0.10;0.10;;;;;;;;;;5049110;28;20116;-69
2023/01/21 05:11:22;;;;;;;0.10;0.10;;;;;;;;;;5035030;28;20468;-68
2023/01/21 05:13:47;;;;;;;0.35;0.35;;;;;;;;;;5047128;28;20048;-69
2023/01/21 05:16:13;;;;;;;0.10;0.10;;;;;;;;;;5039599;28;20037;-68
2023/01/21 05:18:39;;;;;;;0.47;0.22;;;;;;;;;;5046421;28;20024;-70
2023/01/21 05:21:05;;;;;;;3.30;3.10;;;;;;;;;;5040614;28;20018;-67
2023/01/21 05:23:30;;;;;;;0.10;0.10;;;;;;;;;;5045073;28;20078;-68
2023/01/21 05:25:56;;;;;;;0.20;0.20;;;;;;;;;;5041788;28;20017;-68
2023/01/21 05:28:21;;;;;;;0.10;0.10;;;;;;;;;;5043476;28;20036;-68
2023/01/21 05:30:47;;;;;;;0.43;0.43;;;;;;;;;;5024990;28;20013;-68
2023/01/21 05:33:12;;;;;;;0.32;0.25;;;;;;;;;;5011425;28;20108;-68
2023/01/21 05:35:38;;;;;;;0.10;0.10;;;;;;;;;;5034477;28;20483;-67
2023/01/21 05:38:03;;;;;;;0.30;0.30;;;;;;;;;;5040965;28;20025;-68
2023/01/21 05:40:28;;;;;;;0.30;0.25;;;;;;;;;;5045201;28;20033;-68
2023/01/21 05:42:54;;;;;;;0.20;0.20;;;;;;;;;;5046259;28;20140;-69
2023/01/21 05:45:19;;;;;;;0.13;0.13;;;;;;;;;;5042899;28;20056;-68
2023/01/21 05:47:45;;;;;;;0.10;0.10;;;;;;;;;;5027806;28;20028;-68
2023/01/21 05:50:11;;;;;;;0.10;0.10;;;;;;;;;;5031308;28;20106;-69
2023/01/21 05:52:36;;;;;;;1.27;1.17;;;;;;;;;;5031262;28;20041;-67
2023/01/21 05:55:02;;;;;;;4.22;0.85;;;;;;;;;;5028926;28;20078;-68
2023/01/21 05:57:27;;;;;;;0.10;0.10;;;;;;;;;;5019601;28;20116;-69
2023/01/21 05:59:53;;;;;;;0.00;0.00;;;;;;;;;;5011664;28;20239;-68
2023/01/21 06:02:18;;;;;;;0.10;0.10;;;;;;;;;;5039922;28;20445;-68
2023/01/21 06:04:44;;;;;;;0.10;0.10;;;;;;;;;;5033203;28;20487;-69
2023/01/21 06:07:09;;;;;;;0.00;0.00;;;;;;;;;;5036185;28;20052;-68
2023/01/21 06:09:34;;;;;;;0.00;0.00;;;;;;;;;;5032475;28;20026;-69
2023/01/21 06:12:00;;;;;;;0.10;0.10;;;;;;;;;;5014142;28;20092;-67
2023/01/21 06:14:25;;;;;;;0.05;0.05;;;;;;;;;;5032582;28;20025;-69
2023/01/21 06:16:51;;;;;;;0.30;0.30;;;;;;;;;;5032575;28;20523;-68
2023/01/21 06:19:16;;;;;;;0.13;0.13;;;;;;;;;;5032810;28;20025;-68
2023/01/21 06:21:42;;;;;;;0.60;0.60;;;;;;;;;;5031597;28;20026;-67
2023/01/21 06:24:07;;;;;;;0.10;0.10;;;;;;;;;;5031720;28;20067;-67
2023/01/21 06:26:33;;;;;;;0.00;0.00;;;;;;;;;;5032094;28;20039;-69
2023/01/21 06:28:58;;;;;;;0.20;0.20;;;;;;;;;;5014403;28;20041;-68
2023/01/21 06:31:23;;;;;;;0.10;0.10;;;;;;;;;;5032412;28;20048;-70
2023/01/21 06:33:49;;;;;;;0.10;0.10;;;;;;;;;;5031540;28;20113;-68
2023/01/21 06:36:14;;;;;;;0.10;0.10;;;;;;;;;;5032012;28;20560;-70
2023/01/21 06:38:40;;;;;;;0.00;0.00;;;;;;;;;;5031759;28;20027;-68
2023/01/21 06:41:05;;;;;;;0.10;0.10;;;;;;;;;;5031446;28;20083;-68
2023/01/21 06:43:30;;;;;;;0.00;0.00;;;;;;;;;;5031672;28;20365;-72
2023/01/21 06:45:56;;;;;;;0.10;0.10;;;;;;;;;;5031993;28;20610;-74
2023/01/21 06:48:21;;;;;;;0.10;0.10;;;;;;;;;;5031919;28;20365;-67
2023/01/21 06:50:47;;;;;;;0.00;0.00;;;;;;;;;;5031362;28;20021;-68
2023/01/21 06:53:12;;;;;;;0.10;0.10;;;;;;;;;;5029993;28;20057;-70
2023/01/21 06:55:37;;;;;;;0.10;0.10;;;;;;;;;;5031190;28;20520;-68
2023/01/21 06:58:03;;;;;;;0.10;0.10;;;;;;;;;;5031506;28;20034;-68
2023/01/21 07:00:28;;;;;;;0.20;0.20;;;;;;;;;;5031119;28;20251;-72
2023/01/21 07:02:55;;;;;;;0.10;0.10;;;;;;;;;;5030772;28;20369;-68
2023/01/21 07:05:20;;;;;;;0.10;0.10;;;;;;;;;;5031287;28;20021;-68
2023/01/21 07:07:45;;;;;;;0.10;0.10;;;;;;;;;;5031085;28;20045;-70
2023/01/21 07:10:11;;;;;;;0.10;0.10;;;;;;;;;;5031716;28;20056;-70
2023/01/21 07:12:36;;;;;;;0.08;0.08;;;;;;;;;;5030435;28;20381;-69
2023/01/21 07:15:02;;;;;;;0.10;0.10;;;;;;;;;;5030257;28;20149;-68
2023/01/21 07:17:27;;;;;;;0.10;0.10;;;;;;;;;;5013729;28;20022;-72
2023/01/21 07:19:53;;;;;;;0.30;0.30;;;;;;;;;;5031172;28;20123;-72
2023/01/21 07:22:18;;;;;;;0.10;0.10;;;;;;;;;;5031305;28;20017;-69
2023/01/21 07:24:43;;;;;;;0.10;0.10;;;;;;;;;;5030837;28;20041;-69
2023/01/21 07:27:09;;;;;;;0.03;0.03;;;;;;;;;;5031019;28;20432;-69
2023/01/21 07:29:34;;;;;;;0.10;0.10;;;;;;;;;;5031015;28;20109;-70
2023/01/21 07:32:00;;;;;;;0.10;0.10;;;;;;;;;;5031138;28;20020;-69
2023/01/21 07:34:25;;;;;;;0.10;0.10;;;;;;;;;;5031227;28;20034;-67
2023/01/21 07:36:51;;;;;;;0.10;0.10;;;;;;;;;;5030490;28;20072;-68
2023/01/21 07:39:16;;;;;;;0.10;0.10;;;;;;;;;;5030547;28;20026;-68
2023/01/21 07:41:41;;;;;;;0.10;0.10;;;;;;;;;;5030971;28;20099;-70
2023/01/21 07:44:10;;;;;;;0.55;0.47;;;;;;;;;;5030313;28;20483;-69
2023/01/21 07:46:35;;;;;;;0.10;0.10;;;;;;;;;;5030138;28;20104;-69
2023/01/21 07:49:01;;;;;;;0.20;0.20;;;;;;;;;;5029585;28;20021;-69
2023/01/21 07:51:26;;;;;;;0.20;0.20;;;;;;;;;;5029012;28;20021;-69
2023/01/21 07:53:53;;;;;;;0.60;0.60;;;;;;;;;;5030165;28;20895;-69
2023/01/21 07:56:19;;;;;;;0.10;0.10;;;;;;;;;;5030370;28;20508;-76
2023/01/21 07:58:45;;;;;;;0.13;0.13;;;;;;;;;;5030785;28;20057;-69
2023/01/21 08:01:11;;;;;;;0.30;0.20;;;;;;;;;;4995110;28;20026;-68
2023/01/21 08:03:37;;;;;;;0.10;0.10;;;;;;;;;;5010924;28;20029;-68
2023/01/21 08:06:03;;;;;;;0.10;0.10;;;;;;;;;;4992875;28;20053;-69
2023/01/21 08:08:29;;;;;;;0.10;0.10;;;;;;;;;;5010981;28;20030;-69
2023/01/21 08:10:55;;;;;;;0.10;0.10;;;;;;;;;;5029148;28;20037;-68
2023/01/21 08:13:21;;;;;;;0.10;0.10;;;;;;;;;;5028797;28;20025;-70
2023/01/21 08:15:50;;;;;;;0.10;0.10;;;;;;;;;;4995703;28;20036;-69
2023/01/21 08:18:15;;;;;;;0.20;0.20;;;;;;;;;;5029538;28;20108;-75
2023/01/21 08:20:42;;;;;;;0.20;0.20;;;;;;;;;;5030158;28;20152;-70
2023/01/21 08:23:07;;;;;;;0.20;0.20;;;;;;;;;;5029405;28;20322;-73
2023/01/21 08:25:33;;;;;;;0.10;0.10;;;;;;;;;;5029243;28;20033;-69
2023/01/21 08:27:58;;;;;;;0.30;0.30;;;;;;;;;;5029668;28;20032;-70
2023/01/21 08:30:24;;;;;;;0.00;0.00;;;;;;;;;;5030263;28;20143;-69
2023/01/21 08:32:50;;;;;;;0.38;0.38;;;;;;;;;;5012779;28;20372;-69
2023/01/21 08:35:15;;;;;;;0.10;0.10;;;;;;;;;;5029951;28;20034;-69
2023/01/21 08:37:41;;;;;;;0.10;0.10;;;;;;;;;;5012170;28;20457;-69
2023/01/21 08:40:07;;;;;;;0.25;0.25;;;;;;;;;;5030163;28;20021;-68
2023/01/21 08:42:32;;;;;;;0.20;0.20;;;;;;;;;;5029651;28;20025;-68
2023/01/21 08:44:57;;;;;;;0.30;0.20;;;;;;;;;;5028483;28;20112;-68
2023/01/21 08:47:23;;;;;;;0.10;0.10;;;;;;;;;;5029811;28;20063;-69
2023/01/21 08:49:48;;;;;;;0.10;0.10;;;;;;;;;;5028833;28;20072;-68
2023/01/21 08:52:15;;;;;;;0.73;0.73;;;;;;;;;;5011958;28;20125;-69
2023/01/21 08:54:41;;;;;;;0.10;0.10;;;;;;;;;;5029104;28;20035;-75
2023/01/21 08:57:07;;;;;;;0.28;0.20;;;;;;;;;;5027390;28;20477;-69
2023/01/21 08:59:33;;;;;;;0.10;0.10;;;;;;;;;;5029256;28;20091;-70
2023/01/21 09:01:59;;;;;;;0.10;0.10;;;;;;;;;;5029404;28;20489;-69
2023/01/21 09:04:24;;;;;;;0.10;0.10;;;;;;;;;;5029488;28;20053;-68
2023/01/21 09:06:50;;;;;;;2.28;0.68;;;;;;;;;;5018000;28;20038;-69
2023/01/21 09:09:15;;;;;;;0.20;0.20;;;;;;;;;;5010319;28;20037;-70
2023/01/21 09:11:41;;;;;;;0.10;0.10;;;;;;;;;;5009721;28;20025;-71
2023/01/21 09:14:06;;;;;;;0.10;0.10;;;;;;;;;;5009323;28;20346;-70
2023/01/21 09:16:32;;;;;;;0.10;0.10;;;;;;;;;;5006683;28;20385;-70
2023/01/21 09:18:58;;;;;;;0.10;0.10;;;;;;;;;;5007524;28;20101;-70
2023/01/21 09:21:23;;;;;;;0.20;0.20;;;;;;;;;;5010290;28;20022;-69
2023/01/21 09:23:49;;;;;;;0.10;0.10;;;;;;;;;;5009676;28;20045;-70
2023/01/21 09:26:15;;;;;;;0.10;0.10;;;;;;;;;;5027939;28;20116;-69
2023/01/21 09:28:42;;;;;;;0.65;0.63;;;;;;;;;;5025567;28;20079;-70
2023/01/21 09:31:09;;;;;;;0.28;0.28;;;;;;;;;;5009359;28;20110;-76
2023/01/21 09:33:36;;;;;;;0.82;0.63;;;;;;;;;;5005626;28;20475;-70
2023/01/21 09:36:02;;;;;;;0.38;0.20;;;;;;;;;;5028591;28;20075;-69
2023/01/21 09:38:28;;;;;;;0.10;0.10;;;;;;;;;;5031870;28;20016;-70
2023/01/21 09:40:55;;;;;;;0.10;0.10;;;;;;;;;;5032681;28;20480;-70
2023/01/21 09:43:40;;;;;;;0.13;0.13;;;;;;;;;;5033058;28;20028;-72
2023/01/21 09:46:09;;;;;;;0.10;0.10;;;;;;;;;;5033110;28;20107;-71
2023/01/21 09:48:37;;;;;;;0.10;0.10;;;;;;;;;;5033305;28;20469;-70
2023/01/21 09:51:05;;;;;;;0.10;0.10;;;;;;;;;;5031492;28;20336;-69
2023/01/21 09:53:43;;;;;;;0.47;0.30;;;;;;;;;;5033006;28;20029;-70
2023/01/21 09:56:13;;;;;;;0.20;0.20;;;;;;;;;;5032838;28;20045;-70
2023/01/21 09:58:38;;;;;;;0.10;0.10;;;;;;;;;;5031714;28;20096;-71
2023/01/21 10:01:10;;;;;;;0.20;0.20;;;;;;;;;;5030894;28;20029;-71
2023/01/21 10:03:36;;;;;;;0.13;0.13;;;;;;;;;;5030069;28;20520;-70
2023/01/21 10:06:04;;;;;;;0.10;0.10;;;;;;;;;;5037191;28;20116;-70
2023/01/21 10:08:42;;;;;;;0.10;0.10;;;;;;;;;;5023120;28;20086;-71
2023/01/21 10:11:07;;;;;;;0.10;0.10;;;;;;;;;;5034914;28;20202;-71
2023/01/21 10:13:36;;;;;;;0.10;0.10;;;;;;;;;;5052674;28;20081;-71
2023/01/21 10:16:04;;;;;;;0.10;0.10;;;;;;;;;;5052367;28;20037;-73
2023/01/21 10:18:31;;;;;;;0.10;0.10;;;;;;;;;;5052439;28;20480;-71
2023/01/21 10:21:16;;;;;;;0.10;0.10;;;;;;;;;;5045382;28;20464;-70
2023/01/21 10:23:44;;;;;;;0.10;0.10;;;;;;;;;;5025214;28;20973;-69
2023/01/21 10:26:11;;;;;;;0.30;0.30;;;;;;;;;;5032361;28;20057;-68
2023/01/21 10:28:39;;;;;;;0.80;0.20;;;;;;;;;;5032344;28;20033;-70
2023/01/21 10:31:22;;;;;;;4.80;1.30;;;;;;;;;;5032652;28;20510;-70
2023/01/21 10:33:48;;;;;;;3.10;0.25;;;;;;;;;;5031788;28;20028;-71
2023/01/21 10:36:16;;;;;;;0.25;0.25;;;;;;;;;;5031039;28;20029;-70
2023/01/21 10:38:44;;;;;;;0.10;0.10;;;;;;;;;;5031651;28;20028;-72
2023/01/21 10:41:10;;;;;;;0.10;0.10;;;;;;;;;;5031162;28;20116;-68
2023/01/21 10:43:44;;;;;;;6.30;5.88;;;;;;;;;;5031967;28;20108;-69
2023/01/21 10:46:24;;;;;;;0.10;0.10;;;;;;;;;;5016500;28;20029;-68
2023/01/21 10:49:02;;;;;;;0.15;0.15;;;;;;;;;;5030173;28;20404;-68
2023/01/21 10:51:47;;;;;;;0.10;0.10;;;;;;;;;;5010544;28;20021;-69
2023/01/21 10:54:20;;;;;;;0.17;0.17;;;;;;;;;;5029286;28;20037;-72
2023/01/21 10:56:49;;;;;;;0.17;0.17;;;;;;;;;;5031851;28;20022;-69
2023/01/21 10:59:16;;;;;;;0.20;0.20;;;;;;;;;;5011888;28;20468;-68
2023/01/21 11:01:43;;;;;;;0.10;0.10;;;;;;;;;;5039672;28;20148;-70
2023/01/21 11:04:12;;;;;;;0.10;0.10;;;;;;;;;;5032133;28;20016;-69
2023/01/21 11:06:38;;;;;;;0.10;0.10;;;;;;;;;;5012320;28;20049;-71
2023/01/21 11:09:05;;;;;;;0.10;0.10;;;;;;;;;;5022076;28;20033;-71
2023/01/21 11:11:32;;;;;;;0.10;0.10;;;;;;;;;;5019050;28;20418;-70
2023/01/21 11:13:58;;;;;;;0.20;0.20;;;;;;;;;;5042445;28;20033;-70
2023/01/21 11:16:34;;;;;;;0.10;0.10;;;;;;;;;;5040366;28;20376;-68
2023/01/21 11:19:01;;;;;;;0.10;0.10;;;;;;;;;;5032149;28;20033;-70
2023/01/21 11:21:26;;;;;;;0.10;0.10;;;;;;;;;;5029027;28;20515;-71
2023/01/21 11:23:53;;;;;;;0.28;0.28;;;;;;;;;;5030172;28;20033;-70
2023/01/21 11:26:28;;;;;;;0.10;0.10;;;;;;;;;;5031134;28;20472;-70
2023/01/21 11:29:07;;;;;;;0.32;0.32;;;;;;;;;;5014353;28;20033;-70
2023/01/21 11:31:33;;;;;;;0.70;0.50;;;;;;;;;;5029447;28;20040;-69
2023/01/21 11:34:24;;;;;;;0.22;0.22;;;;;;;;;;5030367;28;20033;-70
2023/01/21 11:36:53;;;;;;;0.10;0.10;;;;;;;;;;5027503;28;20041;-70
2023/01/21 11:39:21;;;;;;;0.20;0.20;;;;;;;;;;5031033;28;20021;-71
2023/01/21 11:41:57;;;;;;;0.10;0.10;;;;;;;;;;5030451;28;20461;-71
2023/01/21 11:44:23;;;;;;;0.10;0.10;;;;;;;;;;5030210;28;20020;-69
2023/01/21 11:46:49;;;;;;;0.10;0.10;;;;;;;;;;5029224;28;20116;-68
2023/01/21 11:49:14;;;;;;;13.63;0.73;;;;;;;;;;5030769;28;20029;-71
2023/01/21 11:51:40;;;;;;;0.10;0.10;;;;;;;;;;5030053;28;20025;-71
2023/01/21 11:54:14;;;;;;;0.20;0.20;;;;;;;;;;5012558;28;20047;-69
2023/01/21 11:56:44;;;;;;;0.30;0.30;;;;;;;;;;5028230;28;20025;-70
2023/01/21 11:59:12;;;;;;;0.10;0.10;;;;;;;;;;5036417;28;20095;-69
2023/01/21 12:01:37;;;;;;;0.10;0.10;;;;;;;;;;5031254;28;20510;-70
2023/01/21 12:04:03;;;;;;;0.60;0.40;;;;;;;;;;5012540;28;20011;-69
2023/01/21 12:06:31;;;;;;;0.10;0.10;;;;;;;;;;5030603;28;20052;-71
2023/01/21 12:09:01;;;;;;;0.10;0.10;;;;;;;;;;5030721;28;20025;-69
2023/01/21 12:11:28;;;;;;;0.10;0.10;;;;;;;;;;5011212;28;20488;-68
2023/01/21 12:14:01;;;;;;;0.10;0.10;;;;;;;;;;5019027;28;20029;-69
2023/01/21 12:16:27;;;;;;;0.10;0.10;;;;;;;;;;5010705;28;20477;-70
2023/01/21 12:18:55;;;;;;;0.10;0.10;;;;;;;;;;5015854;28;20045;-69
2023/01/21 12:21:41;;;;;;;0.10;0.10;;;;;;;;;;5071543;27;1535434;-70
2023/01/21 12:24:07;;;;;;;0.75;0.75;;;;;;;;;;5107172;28;20031;-69
2023/01/21 12:26:38;;;;;;;0.17;0.17;;;;;;;;;;5106170;28;20382;-70
2023/01/21 12:29:03;;;;;;;0.10;0.10;;;;;;;;;;5105607;28;20073;-70
2023/01/21 12:31:55;;;;;;;0.10;0.10;;;;;;;;;;5100684;28;20020;-68
2023/01/21 12:34:50;;;;;;;0.10;0.10;;;;;;;;;;5094048;28;20108;-71
2023/01/21 12:37:25;;;;;;;0.30;0.30;;;;;;;;;;5089753;28;20880;-72
2023/01/21 12:39:53;;;;;;;0.43;0.30;;;;;;;;;;5091709;28;20107;-71
2023/01/21 12:42:28;;;;;;;0.10;0.10;;;;;;;;;;5100445;28;20433;-72
2023/01/21 12:44:59;;;;;;;0.10;0.10;;;;;;;;;;5098462;28;20029;-69
2023/01/21 12:47:39;;;;;;;0.10;0.10;;;;;;;;;;5100492;28;20032;-69
2023/01/21 12:50:05;;;;;;;0.10;0.10;;;;;;;;;;5099860;28;20352;-68
2023/01/21 12:52:40;;;;;;;0.10;0.10;;;;;;;;;;5097553;28;20035;-68
2023/01/21 12:55:12;;;;;;;0.10;0.10;;;;;;;;;;5099441;28;20020;-70
2023/01/21 12:58:05;;;;;;;0.10;0.10;;;;;;;;;;5075609;28;20052;-70
2023/01/21 13:00:35;;;;;;;0.10;0.10;;;;;;;;;;5098940;28;20060;-69
2023/01/21 13:03:02;;;;;;;0.10;0.10;;;;;;;;;;5104273;28;20073;-69
2023/01/21 13:05:49;;;;;;;0.10;0.10;;;;;;;;;;5095000;28;20081;-69
2023/01/21 13:08:26;;;;;;;0.10;0.10;;;;;;;;;;5082835;28;20108;-68
2023/01/21 13:10:55;;;;;;;0.10;0.10;;;;;;;;;;5084429;28;20020;-69
2023/01/21 13:13:32;;;;;;;0.10;0.10;;;;;;;;;;5086112;28;20059;-69
2023/01/21 13:16:00;;;;;;;0.10;0.10;;;;;;;;;;5085628;28;20024;-68
2023/01/21 13:18:36;;;;;;;0.10;0.10;;;;;;;;;;5085881;28;20028;-70
2023/01/21 13:21:11;;;;;;;0.10;0.10;;;;;;;;;;5086060;28;20052;-72
2023/01/21 13:23:43;;;;;;;0.10;0.10;;;;;;;;;;5085143;28;20074;-68
2023/01/21 13:26:11;;;;;;;0.10;0.10;;;;;;;;;;5084038;28;20117;-69
2023/01/21 13:28:42;;;;;;;0.10;0.10;;;;;;;;;;5083993;28;20024;-68
2023/01/21 13:31:11;;;;;;;0.10;0.10;;;;;;;;;;5079670;28;20107;-69
2023/01/21 13:33:42;;;;;;;0.10;0.10;;;;;;;;;;5070449;28;20048;-70
2023/01/21 13:36:22;;;;;;;0.15;0.15;;;;;;;;;;5069267;28;20499;-69
2023/01/21 13:38:47;;;;;;;0.10;0.10;;;;;;;;;;5071072;28;20025;-68
2023/01/21 13:41:22;;;;;;;0.10;0.10;;;;;;;;;;5071868;28;20368;-68
2023/01/21 13:43:53;;;;;;;0.10;0.10;;;;;;;;;;5071588;28;20070;-70
2023/01/21 13:46:34;;;;;;;0.10;0.10;;;;;;;;;;5071867;28;20033;-68
2023/01/21 13:49:05;;;;;;;0.10;0.10;;;;;;;;;;5072048;28;20020;-68
2023/01/21 13:51:39;;;;;;;0.30;0.30;;;;;;;;;;5071133;28;20025;-68
2023/01/21 13:54:11;;;;;;;0.10;0.10;;;;;;;;;;5071459;28;20025;-68
2023/01/21 13:56:36;;;;;;;0.20;0.20;;;;;;;;;;5071575;28;20372;-68
2023/01/21 13:59:06;;;;;;;0.10;0.10;;;;;;;;;;5071552;28;20032;-69
2023/01/21 14:01:43;;;;;;;0.10;0.10;;;;;;;;;;5072248;28;20118;-68
2023/01/21 14:04:23;;;;;;;0.10;0.10;;;;;;;;;;5071495;28;20032;-69
2023/01/21 14:07:00;;;;;;;0.28;0.28;;;;;;;;;;5071452;28;20507;-68
2023/01/21 14:09:29;;;;;;;0.10;0.10;;;;;;;;;;5071454;28;20061;-68
2023/01/21 14:11:54;;;;;;;0.17;0.17;;;;;;;;;;5071588;28;20043;-68
2023/01/21 14:14:35;;;;;;;0.10;0.10;;;;;;;;;;5071451;28;20020;-68
2023/01/21 14:17:00;;;;;;;0.32;0.32;;;;;;;;;;5071679;28;20102;-68
2023/01/21 14:19:43;;;;;;;0.10;0.10;;;;;;;;;;5070573;28;20511;-71
2023/01/21 14:22:12;;;;;;;0.10;0.10;;;;;;;;;;5071122;28;20078;-70
2023/01/21 14:24:37;;;;;;;0.40;0.40;;;;;;;;;;5071263;28;20038;-70
2023/01/21 14:27:09;;;;;;;0.10;0.10;;;;;;;;;;5071055;28;20483;-69
2023/01/21 14:29:45;;;;;;;0.10;0.10;;;;;;;;;;5071298;28;20078;-69
2023/01/21 14:32:10;;;;;;;0.10;0.10;;;;;;;;;;5069875;28;20492;-69
2023/01/21 14:34:39;;;;;;;0.10;0.10;;;;;;;;;;5070738;28;20099;-69
2023/01/21 14:37:04;;;;;;;0.30;0.30;;;;;;;;;;5071000;28;20078;-71
2023/01/21 14:39:51;;;;;;;0.10;0.10;;;;;;;;;;5070910;28;20033;-69
2023/01/21 14:42:23;;;;;;;0.10;0.10;;;;;;;;;;5070846;28;20189;-69
2023/01/21 14:44:49;;;;;;;0.10;0.10;;;;;;;;;;5070772;28;20377;-68
2023/01/21 14:47:21;;;;;;;0.10;0.10;;;;;;;;;;5070672;28;20027;-70
2023/01/21 14:49:54;;;;;;;0.10;0.10;;;;;;;;;;5069729;28;20976;-69
2023/01/21 14:52:28;;;;;;;0.20;0.20;;;;;;;;;;5070633;28;20056;-69
2023/01/21 14:54:53;;;;;;;0.20;0.20;;;;;;;;;;5070621;28;20052;-69